Time;durP1;ratioP1;P1;durP2;ratioP2;P2;SDS_P1;SDS_P2;PMS_P1;PMS_P2;Temp;Humidity;BMP_temperature;BMP_pressure;BME280_temperature;BME280_humidity;BME280_pressure;Samples;Min_cycle;Max_cycle;Signal;HPM_P1;HPM_P2
2022/03/28 00:01:47;;;;;;;10.32;3.80;;;;;;;;;;4998125;28;20478;-67
2022/03/28 00:04:13;;;;;;;11.63;3.95;;;;;;;;;;4997966;28;20074;-67
2022/03/28 00:06:39;;;;;;;6.70;3.13;;;;;;;;;;4998512;28;20084;-67
2022/03/28 00:09:05;;;;;;;13.20;3.85;;;;;;;;;;4980729;28;20061;-67
2022/03/28 00:11:32;;;;;;;9.13;3.67;;;9.20;88.50;;;;;;5000072;28;20017;-66
2022/03/28 00:13:59;;;;;;;6.70;3.22;;;;;;;;;;4998321;28;20034;-67
2022/03/28 00:16:25;;;;;;;8.98;5.53;;;;;;;;;;4998155;28;20085;-67
2022/03/28 00:18:51;;;;;;;6.38;3.30;;;;;;;;;;4997174;28;20469;-66
2022/03/28 00:21:17;;;;;;;5.10;3.38;;;;;;;;;;4998935;28;20025;-67
2022/03/28 00:23:42;;;;;;;6.00;2.63;;;7.40;64.70;;;;;;4999713;28;20033;-67
2022/03/28 00:26:08;;;;;;;10.02;4.57;;;;;;;;;;4997672;28;20492;-67
2022/03/28 00:28:34;;;;;;;6.40;3.90;;;;;;;;;;4982915;28;20060;-67
2022/03/28 00:31:00;;;;;;;9.60;3.92;;;;;;;;;;4998945;28;20607;-66
2022/03/28 00:33:26;;;;;;;7.25;3.85;;;;;;;;;;4996313;28;20098;-67
2022/03/28 00:35:52;;;;;;;8.70;4.72;;;;;;;;;;4995817;28;20048;-68
2022/03/28 00:38:18;;;;;;;9.82;3.78;;;;;;;;;;5001872;28;20499;-67
2022/03/28 00:40:44;;;;;;;4.57;3.25;;;;;;;;;;4999788;28;20033;-67
2022/03/28 00:43:11;;;;;;;6.00;4.13;;;;;;;;;;4999583;28;20561;-67
2022/03/28 00:45:38;;;;;;;9.48;4.05;;;;;;;;;;4997763;28;20165;-67
2022/03/28 00:48:04;;;;;;;4.95;3.58;;;;;;;;;;4997012;28;20057;-67
2022/03/28 00:50:30;;;;;;;8.88;3.65;;;;;;;;;;4998610;28;20034;-66
2022/03/28 00:52:57;;;;;;;11.70;4.72;;;;;;;;;;4997249;28;20529;-67
2022/03/28 00:55:23;;;;;;;12.60;4.10;;;;;;;;;;4995246;28;20172;-66
2022/03/28 00:57:49;;;;;;;5.53;3.45;;;;;;;;;;4997025;28;20584;-66
2022/03/28 01:00:15;;;;;;;7.78;3.38;;;;;;;;;;4996046;28;20105;-66
2022/03/28 01:02:41;;;;;;;4.30;2.35;;;;;;;;;;4981090;28;20546;-65
2022/03/28 01:05:08;;;;;;;6.03;3.10;;;;;;;;;;4994255;28;20035;-66
2022/03/28 01:07:34;;;;;;;7.47;3.45;;;;;;;;;;4995218;28;20089;-67
2022/03/28 01:10:01;;;;;;;19.20;4.07;;;;;;;;;;4997172;28;20061;-67
2022/03/28 01:12:28;;;;;;;5.47;3.10;;;;;;;;;;4979897;28;20022;-67
2022/03/28 01:14:54;;;;;;;9.20;4.68;;;;;;;;;;4997980;28;20037;-67
2022/03/28 01:20:07;;;;;;;8.57;3.85;;;;;;;;;;4997462;28;20072;-66
2022/03/28 01:22:33;;;;;;;;;;;;;;;;;;4997008;28;20049;-67
2022/03/28 01:25:00;;;;;;;8.43;3.72;;;;;;;;;;4996803;28;19921;-67
2022/03/28 01:27:26;;;;;;;3.67;2.35;;;;;;;;;;4997442;28;20041;-65
2022/03/28 01:29:51;;;;;;;4.57;3.38;;;8.00;75.10;;;;;;4996363;28;20042;-65
2022/03/28 01:32:17;;;;;;;8.68;3.72;;;7.90;90.70;;;;;;4997274;28;20513;-65
2022/03/28 01:34:43;;;;;;;8.32;3.75;;;;;;;;;;4996723;28;20060;-67
2022/03/28 01:37:09;;;;;;;7.93;4.53;;;;;;;;;;4996506;28;20030;-66
2022/03/28 01:39:35;;;;;;;10.38;3.80;;;;;;;;;;4997001;28;20038;-67
2022/03/28 01:42:01;;;;;;;5.80;3.55;;;;;;;;;;4995204;28;20030;-66
2022/03/28 01:44:27;;;;;;;3.70;2.85;;;;;;;;;;4995669;28;20406;-66
2022/03/28 01:46:53;;;;;;;11.45;3.67;;;;;;;;;;4995321;28;20030;-68
2022/03/28 01:49:20;;;;;;;5.85;2.88;;;;;;;;;;4995350;28;20121;-68
2022/03/28 01:51:46;;;;;;;4.97;3.50;;;;;;;;;;4996782;28;20032;-66
2022/03/28 01:54:13;;;;;;;5.18;2.95;;;;;;;;;;4995576;28;20034;-67
2022/03/28 01:56:39;;;;;;;6.80;3.15;;;;;;;;;;4997585;28;20129;-67
2022/03/28 01:59:06;;;;;;;7.63;3.83;;;;;;;;;;4996388;28;20045;-67
2022/03/28 02:01:33;;;;;;;4.47;2.80;;;;;;;;;;4996977;28;20026;-66
2022/03/28 02:03:59;;;;;;;6.30;3.90;;;;;;;;;;4998026;28;20030;-67
2022/03/28 02:06:25;;;;;;;5.45;3.45;;;;;;;;;;4997023;28;20619;-66
2022/03/28 02:08:51;;;;;;;5.68;3.35;;;7.40;70.30;;;;;;5000830;28;20021;-67
2022/03/28 02:11:17;;;;;;;7.32;4.22;;;;;;;;;;5001754;28;20146;-67
2022/03/28 02:13:43;;;;;;;8.43;3.70;;;7.40;81.40;;;;;;5000289;28;20026;-66
2022/03/28 02:16:09;;;;;;;4.82;3.15;;;;;;;;;;5001020;28;20037;-67
2022/03/28 02:18:35;;;;;;;16.10;6.53;;;7.60;91.80;;;;;;5001418;28;20026;-66
2022/03/28 02:21:01;;;;;;;8.57;4.10;;;;;;;;;;4999282;28;20030;-66
2022/03/28 02:23:28;;;;;;;6.93;4.93;;;;;;;;;;5001551;28;20084;-67
2022/03/28 02:25:54;;;;;;;9.48;3.35;;;;;;;;;;5000312;28;20666;-67
2022/03/28 02:28:19;;;;;;;6.95;4.65;;;7.40;91.50;;;;;;5000033;28;20083;-67
2022/03/28 02:30:45;;;;;;;6.10;3.10;;;7.40;84.90;;;;;;5000445;28;20038;-66
2022/03/28 02:33:11;;;;;;;4.93;2.92;;;;;;;;;;5000034;28;20061;-66
2022/03/28 02:35:37;;;;;;;6.32;3.50;;;;;;;;;;5001136;28;20029;-67
2022/03/28 02:38:03;;;;;;;9.73;3.38;;;7.30;74.60;;;;;;4999075;28;20033;-66
2022/03/28 02:40:29;;;;;;;4.20;2.55;;;;;;;;;;5000038;28;22600;-67
2022/03/28 02:42:59;;;;;;;6.18;3.20;;;;;;;;;;5000630;28;20030;-67
2022/03/28 02:45:35;;;;;;;9.82;3.60;;;;;;;;;;4998967;28;20060;-67
2022/03/28 02:48:00;;;;;;;9.55;3.97;;;7.20;74.40;;;;;;4997526;28;20029;-66
2022/03/28 02:50:27;;;;;;;5.22;3.08;;;;;;;;;;5000295;28;20045;-65
2022/03/28 02:52:53;;;;;;;6.60;3.78;;;;;;;;;;4998953;28;20057;-66
2022/03/28 02:55:19;;;;;;;5.15;3.42;;;;;;;;;;4999384;28;20125;-66
2022/03/28 02:57:45;;;;;;;5.93;3.38;;;;;;;;;;4998187;28;20547;-67
2022/03/28 03:00:11;;;;;;;7.00;3.70;;;6.90;72.70;;;;;;4999755;28;20109;-66
2022/03/28 03:02:42;;;;;;;5.88;3.67;;;6.90;72.90;;;;;;5001686;28;20030;-66
2022/03/28 03:05:08;;;;;;;6.03;3.22;;;;;;;;;;4999008;28;20043;-66
2022/03/28 03:07:34;;;;;;;14.82;4.65;;;;;;;;;;4999496;28;20041;-66
2022/03/28 03:10:00;;;;;;;8.32;3.92;;;;;;;;;;4997682;28;20034;-66
2022/03/28 03:12:26;;;;;;;7.25;3.58;;;;;;;;;;4999299;28;20202;-67
2022/03/28 03:14:52;;;;;;;6.78;4.22;;;6.90;79.90;;;;;;5000496;28;20418;-65
2022/03/28 03:17:19;;;;;;;5.65;3.53;;;;;;;;;;4999811;28;20026;-65
2022/03/28 03:19:45;;;;;;;11.07;3.72;;;;;;;;;;4998924;28;20554;-67
2022/03/28 03:22:13;;;;;;;13.10;4.22;;;;;;;;;;4998339;28;20033;-66
2022/03/28 03:24:40;;;;;;;4.57;2.83;;;;;;;;;;4998718;28;20026;-66
2022/03/28 03:27:06;;;;;;;7.88;3.17;;;;;;;;;;4999192;28;20569;-66
2022/03/28 03:29:32;;;;;;;4.07;2.92;;;;;;;;;;5000342;28;20057;-66
2022/03/28 03:31:58;;;;;;;6.63;3.83;;;;;;;;;;4998885;28;20075;-67
2022/03/28 03:34:24;;;;;;;6.05;3.63;;;;;;;;;;4998577;28;20030;-66
2022/03/28 03:36:50;;;;;;;5.97;3.72;;;;;;;;;;4981151;28;20560;-67
2022/03/28 03:39:16;;;;;;;3.92;2.55;;;;;;;;;;4998368;28;20029;-67
2022/03/28 03:41:43;;;;;;;5.95;3.15;;;;;;;;;;5000323;28;20025;-65
2022/03/28 03:44:09;;;;;;;4.70;3.63;;;;;;;;;;4997509;28;20104;-67
2022/03/28 03:46:35;;;;;;;5.90;3.95;;;6.10;77.90;;;;;;4998765;28;20038;-66
2022/03/28 03:49:01;;;;;;;5.15;2.95;;;;;;;;;;4998050;28;20048;-66
2022/03/28 03:51:27;;;;;;;7.93;3.92;;;;;;;;;;4999239;28;20645;-66
2022/03/28 03:53:53;;;;;;;5.82;3.67;;;;;;;;;;4998964;28;20050;-66
2022/03/28 03:56:19;;;;;;;10.43;3.60;;;;;;;;;;5000090;28;20029;-67
2022/03/28 03:58:45;;;;;;;5.93;3.55;;;;;;;;;;4998408;28;20030;-66
2022/03/28 04:01:11;;;;;;;7.72;3.25;;;6.20;94.20;;;;;;4998100;28;20427;-65
2022/03/28 04:03:37;;;;;;;6.63;3.35;;;;;;;;;;4997274;28;20026;-67
2022/03/28 04:06:03;;;;;;;6.15;3.83;;;6.50;78.90;;;;;;4997665;28;20038;-67
2022/03/28 04:08:29;;;;;;;5.95;3.65;;;;;;;;;;4999113;28;20055;-67
2022/03/28 04:10:55;;;;;;;8.77;3.25;;;;;;;;;;4998255;28;20104;-67
2022/03/28 04:13:22;;;;;;;7.68;3.63;;;;;;;;;;4997862;28;20184;-66
2022/03/28 04:15:48;;;;;;;6.60;2.83;;;;;;;;;;4997214;28;20533;-66
2022/03/28 04:18:14;;;;;;;6.88;4.22;;;;;;;;;;4998275;28;20030;-68
2022/03/28 04:20:40;;;;;;;5.07;3.08;;;;;;;;;;4998788;28;20038;-65
2022/03/28 04:23:06;;;;;;;5.32;3.05;;;;;;;;;;4983597;28;20018;-65
2022/03/28 04:25:32;;;;;;;8.05;3.63;;;;;;;;;;4997514;28;20411;-67
2022/03/28 04:27:59;;;;;;;4.07;3.00;;;;;;;;;;4997023;28;20160;-66
2022/03/28 04:30:25;;;;;;;7.72;3.83;;;;;;;;;;4996319;28;20033;-66
2022/03/28 04:32:51;;;;;;;9.90;3.35;;;6.20;90.50;;;;;;4997783;28;20022;-66
2022/03/28 04:35:19;;;;;;;8.77;4.93;;;;;;;;;;4998377;28;20084;-66
2022/03/28 04:37:45;;;;;;;9.05;3.75;;;;;;;;;;4997319;28;20125;-69
2022/03/28 04:40:13;;;;;;;7.05;2.60;;;;;;;;;;4979728;28;20041;-66
2022/03/28 04:42:38;;;;;;;4.28;2.88;;;6.40;82.30;;;;;;4997543;28;20041;-66
2022/03/28 04:45:05;;;;;;;5.70;3.25;;;5.80;77.50;;;;;;4996634;28;20042;-66
2022/03/28 04:47:31;;;;;;;5.85;3.58;;;5.80;94.80;;;;;;4998722;28;20060;-67
2022/03/28 04:49:57;;;;;;;5.95;3.35;;;;;;;;;;4979778;28;20165;-66
2022/03/28 04:52:23;;;;;;;4.18;2.55;;;5.60;94.60;;;;;;4997073;28;20042;-67
2022/03/28 04:54:49;;;;;;;6.68;4.28;;;;;;;;;;4997759;28;20034;-66
2022/03/28 04:57:15;;;;;;;3.88;2.72;;;;;;;;;;4997840;28;20035;-66
2022/03/28 04:59:41;;;;;;;5.85;3.33;;;;;;;;;;4997428;28;20034;-66
2022/03/28 05:02:07;;;;;;;8.65;3.88;;;;;;;;;;4997107;28;20030;-66
2022/03/28 05:04:33;;;;;;;4.88;3.70;;;5.80;93.70;;;;;;4983548;28;20613;-67
2022/03/28 05:06:59;;;;;;;7.38;3.67;;;;;;;;;;4997323;28;20037;-66
2022/03/28 05:09:25;;;;;;;7.38;2.47;;;5.90;86.80;;;;;;4997725;28;20030;-67
2022/03/28 05:11:51;;;;;;;4.50;2.78;;;5.70;95.20;;;;;;4996760;28;20092;-65
2022/03/28 05:14:18;;;;;;;7.15;3.38;;;;;;;;;;4998333;28;20030;-65
2022/03/28 05:16:44;;;;;;;11.38;3.85;;;;;;;;;;4996900;28;20026;-65
2022/03/28 05:19:10;;;;;;;6.57;3.55;;;;;;;;;;4996815;28;20098;-67
2022/03/28 05:21:36;;;;;;;10.52;4.15;;;;;;;;;;4997377;28;20517;-66
2022/03/28 05:24:02;;;;;;;13.23;5.78;;;;;;;;;;4995923;28;20030;-65
2022/03/28 05:26:28;;;;;;;9.63;3.70;;;;;;;;;;4997878;28;20053;-67
2022/03/28 05:28:54;;;;;;;8.57;3.80;;;;;;;;;;4992043;28;20775;-66
2022/03/28 05:31:20;;;;;;;4.15;3.22;;;;;;;;;;4993959;28;20022;-67
2022/03/28 05:33:46;;;;;;;16.48;3.42;;;;;;;;;;4975152;28;20037;-66
2022/03/28 05:36:13;;;;;;;7.20;3.67;;;;;;;;;;4994830;28;20030;-70
2022/03/28 05:38:40;;;;;;;7.53;3.30;;;;;;;;;;4993922;28;20088;-67
2022/03/28 05:41:06;;;;;;;6.78;3.03;;;;;;;;;;4992243;28;20034;-68
2022/03/28 05:43:34;;;;;;;9.38;3.15;;;;;;;;;;4991248;28;20152;-67
2022/03/28 05:46:00;;;;;;;9.95;4.15;;;;;;;;;;4991211;28;20099;-67
2022/03/28 05:48:26;;;;;;;8.93;4.28;;;;;;;;;;4993592;28;20079;-68
2022/03/28 05:50:52;;;;;;;7.97;5.30;;;;;;;;;;4993887;28;20125;-69
2022/03/28 05:53:19;;;;;;;10.35;5.35;;;;;;;;;;4994006;28;20124;-68
2022/03/28 05:55:45;;;;;;;8.18;3.05;;;;;;;;;;4994587;28;20034;-68
2022/03/28 05:58:11;;;;;;;8.88;3.60;;;;;;;;;;4994735;28;20026;-68
2022/03/28 06:00:37;;;;;;;10.45;3.28;;;;;;;;;;4995554;28;20041;-70
2022/03/28 06:03:08;;;;;;;9.82;3.80;;;;;;;;;;4995136;28;20593;-67
2022/03/28 06:05:36;;;;;;;4.97;2.20;;;;;;;;;;4995706;28;20524;-68
2022/03/28 06:08:02;;;;;;;4.97;3.20;;;;;;;;;;4994577;28;20053;-68
2022/03/28 06:10:28;;;;;;;10.90;4.15;;;;;;;;;;4994702;28;20033;-68
2022/03/28 06:12:54;;;;;;;4.70;2.40;;;;;;;;;;4994901;28;20033;-67
2022/03/28 06:15:20;;;;;;;11.88;3.50;;;;;;;;;;4994497;28;20044;-67
2022/03/28 06:17:46;;;;;;;6.63;3.22;;;;;;;;;;4996249;28;20026;-67
2022/03/28 06:20:12;;;;;;;6.65;3.30;;;5.30;73.60;;;;;;4994589;28;20034;-67
2022/03/28 06:22:38;;;;;;;6.78;3.22;;;;;;;;;;4995362;28;20117;-68
2022/03/28 06:25:05;;;;;;;5.40;3.70;;;;;;;;;;4993119;28;20053;-68
2022/03/28 06:27:31;;;;;;;8.30;4.00;;;9.10;79.50;;;;;;4995610;28;20026;-67
2022/03/28 06:29:57;;;;;;;20.75;6.03;;;;;;;;;;4994491;28;20038;-68
2022/03/28 06:32:23;;;;;;;19.80;5.97;;;9.60;71.40;;;;;;4996093;28;20026;-69
2022/03/28 06:34:52;;;;;;;15.20;7.10;;;;;;;;;;4993894;28;20857;-68
2022/03/28 06:37:18;;;;;;;15.27;5.45;;;;;;;;;;4987443;28;20542;-71
2022/03/28 06:39:44;;;;;;;11.57;5.82;;;;;;;;;;4992605;28;20775;-67
2022/03/28 06:42:10;;;;;;;11.07;5.70;;;;;;;;;;4990831;28;20041;-67
2022/03/28 06:44:36;;;;;;;10.40;6.07;;;;;;;;;;4993683;28;20116;-68
2022/03/28 06:47:02;;;;;;;13.13;5.95;;;;;;;;;;4975221;28;20173;-68
2022/03/28 06:49:29;;;;;;;14.02;6.15;;;;;;;;;;4991518;28;20109;-67
2022/03/28 06:51:55;;;;;;;11.32;6.55;;;;;;;;;;4992419;28;20140;-67
2022/03/28 06:54:20;;;;;;;12.93;7.57;;;14.70;56.80;;;;;;4995758;28;20073;-67
2022/03/28 06:56:46;;;;;;;17.83;6.50;;;;;;;;;;4999760;28;20866;-67
2022/03/28 06:59:13;;;;;;;12.20;5.20;;;;;;;;;;4997278;28;20124;-67
2022/03/28 07:01:41;;;;;;;18.93;5.90;;;;;;;;;;4996035;28;20033;-68
2022/03/28 07:04:10;;;;;;;18.83;7.93;;;;;;;;;;4995819;28;20031;-68
2022/03/28 07:06:36;;;;;;;11.85;6.07;;;;;;;;;;4996494;28;20125;-68
2022/03/28 07:09:04;;;;;;;27.42;8.05;;;;;;;;;;4996236;28;20130;-68
2022/03/28 07:11:30;;;;;;;18.55;7.93;;;;;;;;;;4997905;28;20065;-68
2022/03/28 07:13:56;;;;;;;18.25;6.55;;;;;;;;;;4981222;28;20022;-69
2022/03/28 07:16:22;;;;;;;14.45;10.02;;;;;;;;;;4981765;28;20081;-68
2022/03/28 07:18:48;;;;;;;8.18;5.55;;;;;;;;;;4995148;28;20430;-68
2022/03/28 07:21:14;;;;;;;12.23;6.47;;;;;;;;;;4995206;28;20026;-68
2022/03/28 07:23:40;;;;;;;11.27;5.97;;;;;;;;;;4996803;28;20038;-69
2022/03/28 07:26:08;;;;;;;12.00;7.57;;;;;;;;;;4995845;28;20038;-68
2022/03/28 07:28:38;;;;;;;21.80;6.60;;;;;;;;;;4993651;28;20497;-68
2022/03/28 07:31:07;;;;;;;27.35;6.28;;;;;;;;;;4995629;28;20822;-71
2022/03/28 07:33:34;;;;;;;16.98;7.13;;;;;;;;;;4994481;28;20035;-72
2022/03/28 07:36:00;;;;;;;7.80;5.07;;;;;;;;;;4996511;28;20042;-71
2022/03/28 07:38:26;;;;;;;10.32;6.25;;;;;;;;;;4998061;28;20269;-71
2022/03/28 07:40:52;;;;;;;18.67;6.77;;;;;;;;;;4995391;28;20030;-70
2022/03/28 07:43:17;;;;;;;10.40;4.80;;;;;;;;;;4980656;28;20037;-70
2022/03/28 07:45:44;;;;;;;14.60;4.67;;;;;;;;;;4995792;28;20037;-70
2022/03/28 07:48:09;;;;;;;13.73;5.13;;;24.20;37.70;;;;;;4996128;28;20062;-69
2022/03/28 07:50:36;;;;;;;12.17;5.40;;;;;;;;;;4997072;28;20064;-70
2022/03/28 07:53:02;;;;;;;8.85;5.88;;;;;;;;;;4995374;28;20042;-72
2022/03/28 07:55:28;;;;;;;15.07;4.47;;;;;;;;;;4993673;28;20033;-71
2022/03/28 07:57:54;;;;;;;11.10;5.68;;;;;;;;;;4996064;28;20064;-69
2022/03/28 08:00:20;;;;;;;7.15;4.47;;;;;;;;;;4995729;28;20029;-69
2022/03/28 08:02:46;;;;;;;6.38;4.40;;;;;;;;;;4995994;28;20034;-69
2022/03/28 08:05:12;;;;;;;13.32;4.70;;;;;;;;;;4994186;28;20092;-69
2022/03/28 08:07:38;;;;;;;13.50;5.85;;;;;;;;;;4995119;28;20061;-70
2022/03/28 08:10:05;;;;;;;9.32;5.13;;;28.20;26.90;;;;;;4995293;28;20682;-70
2022/03/28 08:12:32;;;;;;;14.75;5.15;;;;;;;;;;4978437;28;20398;-69
2022/03/28 08:14:57;;;;;;;6.88;4.07;;;;;;;;;;4996712;28;20034;-70
2022/03/28 08:17:24;;;;;;;11.27;4.07;;;;;;;;;;4996545;28;20101;-71
2022/03/28 08:19:50;;;;;;;7.32;4.40;;;;;;;;;;4991794;28;20040;-71
2022/03/28 08:22:17;;;;;;;8.18;3.70;;;28.70;42.00;;;;;;4993584;28;20031;-70
2022/03/28 08:24:43;;;;;;;13.02;4.50;;;;;;;;;;4994281;28;20118;-69
2022/03/28 08:27:09;;;;;;;7.30;3.70;;;;;;;;;;4994735;28;20049;-69
2022/03/28 08:29:35;;;;;;;10.63;3.43;;;;;;;;;;4995884;28;20038;-68
2022/03/28 08:32:04;;;;;;;8.27;3.97;;;29.10;25.50;;;;;;4995227;28;20793;-68
2022/03/28 08:34:30;;;;;;;5.50;4.20;;;;;;;;;;4993943;28;20473;-69
2022/03/28 08:36:57;;;;;;;5.22;3.13;;;;;;;;;;4997040;28;20042;-69
2022/03/28 08:39:22;;;;;;;7.50;5.18;;;29.40;33.70;;;;;;4995734;28;20050;-69
2022/03/28 08:41:49;;;;;;;9.50;4.73;;;;;;;;;;4996776;28;20061;-72
2022/03/28 08:44:15;;;;;;;11.65;3.30;;;29.40;30.10;;;;;;4993317;28;20037;-73
2022/03/28 08:46:42;;;;;;;5.50;2.92;;;;;;;;;;4990983;28;20045;-72
2022/03/28 08:49:09;;;;;;;4.90;3.45;;;29.70;27.20;;;;;;4992733;28;20058;-70
2022/03/28 08:51:35;;;;;;;14.40;3.28;;;29.50;28.70;;;;;;4992083;28;20022;-69
2022/03/28 08:54:01;;;;;;;5.67;3.47;;;;;;;;;;4993926;28;20145;-70
2022/03/28 08:56:27;;;;;;;8.00;3.33;;;;;;;;;;4996299;28;20762;-70
2022/03/28 08:58:53;;;;;;;6.50;3.00;;;28.10;42.20;;;;;;4993961;28;20033;-69
2022/03/28 09:01:22;;;;;;;25.57;4.00;;;;;;;;;;4992318;28;20037;-70
2022/03/28 09:03:48;;;;;;;7.40;3.25;;;27.90;26.10;;;;;;4992285;28;20041;-70
2022/03/28 09:06:36;;;;;;;5.47;2.75;;;27.90;25.70;;;;;;4995198;28;20104;-69
2022/03/28 09:09:23;;;;;;;6.72;3.63;;;;;;;;;;4993977;28;20030;-70
2022/03/28 09:11:54;;;;;;;8.63;4.35;;;;;;;;;;4994820;28;20068;-70
2022/03/28 09:14:29;;;;;;;7.63;2.78;;;;;;;;;;4992315;28;20030;-70
2022/03/28 09:16:59;;;;;;;8.65;3.40;;;;;;;;;;4992418;28;20574;-69
2022/03/28 09:19:25;;;;;;;7.32;3.53;;;30.30;25.30;;;;;;4993988;28;20031;-70
2022/03/28 09:21:51;;;;;;;8.07;3.77;;;30.90;38.90;;;;;;4994425;28;20030;-71
2022/03/28 09:24:17;;;;;;;13.27;4.40;;;;;;;;;;4994484;28;20156;-70
2022/03/28 09:26:43;;;;;;;8.00;3.55;;;;;;;;;;4996212;28;20121;-70
2022/03/28 09:29:09;;;;;;;9.70;3.60;;;;;;;;;;4993147;28;20041;-74
2022/03/28 09:31:42;;;;;;;10.70;3.37;;;;;;;;;;4992961;28;20030;-69
2022/03/28 09:34:26;;;;;;;8.30;3.20;;;;;;;;;;4991911;28;20039;-69
2022/03/28 09:36:56;;;;;;;7.60;3.90;;;;;;;;;;4994729;28;20059;-73
2022/03/28 09:39:25;;;;;;;10.00;3.08;;;31.10;25.10;;;;;;4995767;28;20119;-73
2022/03/28 09:42:06;;;;;;;8.45;3.97;;;;;;;;;;4997594;28;20026;-72
2022/03/28 09:44:35;;;;;;;7.05;4.40;;;;;;;;;;4995748;28;20030;-67
2022/03/28 09:47:20;;;;;;;5.45;2.97;;;;;;;;;;4993966;28;20038;-73
2022/03/28 09:49:47;;;;;;;8.07;3.05;;;;;;;;;;4992018;28;20023;-69
2022/03/28 09:52:25;;;;;;;7.15;3.70;;;;;;;;;;4991012;28;20050;-71
2022/03/28 09:54:52;;;;;;;13.35;3.15;;;;;;;;;;4993277;28;20062;-71
2022/03/28 09:57:23;;;;;;;13.52;3.67;;;;;;;;;;4994252;28;20092;-71
2022/03/28 09:59:49;;;;;;;8.88;3.78;;;;;;;;;;4995330;28;20026;-69
2022/03/28 10:02:20;;;;;;;8.45;2.88;;;;;;;;;;4991776;28;20127;-70
2022/03/28 10:04:47;;;;;;;6.35;2.67;;;32.50;22.90;;;;;;4991522;28;20030;-70
2022/03/28 10:07:13;;;;;;;5.82;2.53;;;;;;;;;;4992200;28;20033;-70
2022/03/28 10:09:39;;;;;;;12.25;2.63;;;;;;;;;;4993915;28;20041;-70
2022/03/28 10:12:07;;;;;;;8.65;4.13;;;;;;;;;;4994924;28;20040;-69
2022/03/28 10:14:33;;;;;;;15.85;3.97;;;;;;;;;;4994118;28;20058;-70
2022/03/28 10:17:02;;;;;;;8.70;3.42;;;33.20;22.80;;;;;;4992739;28;20062;-70
2022/03/28 10:19:29;;;;;;;11.35;3.53;;;;;;;;;;4992358;28;20085;-69
2022/03/28 10:21:55;;;;;;;5.82;3.47;;;;;;;;;;4992413;28;20041;-70
2022/03/28 10:24:24;;;;;;;7.10;3.25;;;;;;;;;;4994728;28;20057;-70
2022/03/28 10:26:55;;;;;;;6.55;3.83;;;;;;;;;;4995526;28;20419;-70
2022/03/28 10:29:22;;;;;;;5.72;2.83;;;;;;;;;;4997541;28;20057;-70
2022/03/28 10:31:48;;;;;;;;;;;;;;;;;;4984271;28;20030;-70
2022/03/28 10:34:14;;;;;;;9.43;2.92;;;;;;;;;;4996999;28;19920;-69
2022/03/28 10:36:41;;;;;;;6.93;3.75;;;;;;;;;;4998129;28;20050;-70
2022/03/28 10:39:26;;;;;;;6.95;2.55;;;;;;;;;;4996987;28;20037;-70
2022/03/28 10:41:52;;;;;;;9.80;2.28;;;;;;;;;;4982220;28;20065;-71
2022/03/28 10:44:18;;;;;;;7.87;3.73;;;;;;;;;;4996371;28;20088;-70
2022/03/28 10:46:44;;;;;;;9.70;3.00;;;;;;;;;;4994381;28;20706;-70
2022/03/28 10:49:11;;;;;;;7.40;2.57;;;;;;;;;;4997034;28;20023;-70
2022/03/28 10:51:48;;;;;;;5.65;3.00;;;;;;;;;;4997191;28;20487;-71
2022/03/28 10:54:14;;;;;;;5.53;2.35;;;;;;;;;;4975362;28;20173;-70
2022/03/28 10:56:45;;;;;;;8.60;3.90;;;;;;;;;;4999396;28;20034;-70
2022/03/28 10:59:18;;;;;;;5.22;3.75;;;;;;;;;;4995829;28;20634;-70
2022/03/28 11:01:46;;;;;;;5.32;2.95;;;;;;;;;;4994294;28;20041;-70
2022/03/28 11:04:15;;;;;;;9.60;3.00;;;;;;;;;;4995734;28;20019;-69
2022/03/28 11:06:53;;;;;;;7.18;2.65;;;31.20;21.60;;;;;;4996048;28;20030;-70
2022/03/28 11:09:37;;;;;;;5.95;3.75;;;;;;;;;;4995849;28;20034;-70
2022/03/28 11:12:09;;;;;;;8.85;3.33;;;;;;;;;;4995826;28;20065;-69
2022/03/28 11:14:40;;;;;;;16.83;4.10;;;;;;;;;;4997052;28;20030;-70
2022/03/28 11:17:22;;;;;;;15.75;3.25;;;31.40;20.80;;;;;;4994101;28;20034;-70
2022/03/28 11:20:00;;;;;;;5.57;3.42;;;;;;;;;;4994412;28;20561;-71
2022/03/28 11:22:39;;;;;;;18.70;3.17;;;;;;;;;;4995483;28;20049;-70
2022/03/28 11:25:05;;;;;;;5.88;2.40;;;;;;;;;;4996800;28;20145;-71
2022/03/28 11:27:32;;;;;;;7.90;3.97;;;;;;;;;;4997721;28;20049;-70
2022/03/28 11:30:03;;;;;;;7.18;2.90;;;;;;;;;;4996936;28;20410;-75
2022/03/28 11:32:31;;;;;;;7.10;2.30;;;;;;;;;;4996770;28;20117;-70
2022/03/28 11:34:57;;;;;;;15.50;3.85;;;;;;;;;;4996857;28;20398;-70
2022/03/28 11:37:27;;;;;;;6.17;3.20;;;;;;;;;;4997929;28;20511;-70
2022/03/28 11:39:58;;;;;;;5.05;3.08;;;;;;;;;;4996100;28;20411;-72
2022/03/28 11:42:34;;;;;;;7.68;2.42;;;29.00;22.60;;;;;;4997468;28;20042;-71
2022/03/28 11:45:04;;;;;;;7.93;3.10;;;;;;;;;;4997657;28;20032;-71
2022/03/28 11:47:30;;;;;;;11.27;2.72;;;;;;;;;;4996736;28;20117;-71
2022/03/28 11:50:03;;;;;;;11.27;2.88;;;28.20;22.80;;;;;;4992928;28;20113;-71
2022/03/28 11:52:30;;;;;;;9.43;4.00;;;;;;;;;;4993482;28;20054;-71
2022/03/28 11:54:56;;;;;;;5.57;3.20;;;;;;;;;;4995561;28;20031;-71
2022/03/28 12:00:19;;;;;;;8.20;3.65;;;;;;;;;;4995160;28;20060;-70
2022/03/28 12:02:46;;;;;;;12.63;4.93;;;;;;;;;;4996490;28;20034;-72
2022/03/28 12:05:12;;;;;;;7.55;2.78;;;;;;;;;;4994650;28;20030;-72
2022/03/28 12:07:40;;;;;;;5.15;2.55;;;;;;;;;;4993857;28;20044;-72
2022/03/28 12:10:08;;;;;;;11.50;3.15;;;;;;;;;;4992873;28;20032;-69
2022/03/28 12:12:34;;;;;;;9.23;3.45;;;;;;;;;;4993131;28;20044;-69
2022/03/28 12:15:00;;;;;;;5.40;2.28;;;26.90;40.50;;;;;;4994809;28;20487;-69
2022/03/28 12:17:30;;;;;;;5.20;2.78;;;;;;;;;;4997342;28;20030;-70
2022/03/28 12:20:06;;;;;;;7.10;3.33;;;;;;;;;;4991859;28;20414;-70
2022/03/28 12:22:44;;;;;;;11.93;3.42;;;27.70;23.60;;;;;;4992614;28;20033;-69
2022/03/28 12:25:21;;;;;;;12.95;3.53;;;;;;;;;;4992315;28;20038;-69
2022/03/28 12:27:51;;;;;;;13.75;3.83;;;;;;;;;;4975458;28;20513;-70
2022/03/28 12:30:17;;;;;;;11.18;3.45;;;;;;;;;;4977567;28;20042;-69
2022/03/28 12:32:44;;;;;;;7.35;4.80;;;;;;;;;;4994740;28;20034;-69
2022/03/28 12:35:10;;;;;;;9.35;3.10;;;;;;;;;;4992457;28;20042;-73
2022/03/28 12:37:36;;;;;;;11.27;3.22;;;;;;;;;;4992907;28;20044;-73
2022/03/28 12:40:03;;;;;;;5.80;4.50;;;;;;;;;;4994353;28;20038;-73
2022/03/28 12:42:29;;;;;;;11.15;3.65;;;;;;;;;;4994976;28;20997;-73
2022/03/28 12:44:55;;;;;;;7.38;3.50;;;;;;;;;;4994634;28;20038;-73
2022/03/28 12:47:26;;;;;;;13.47;5.17;;;;;;;;;;4995913;28;20136;-72
2022/03/28 12:49:53;;;;;;;7.70;3.75;;;23.20;25.60;;;;;;4992717;28;20037;-72
2022/03/28 12:52:24;;;;;;;4.90;3.03;;;;;;;;;;4993570;28;20069;-74
2022/03/28 12:54:56;;;;;;;5.40;3.20;;;;;;;;;;4996484;28;20046;-72
2022/03/28 12:57:25;;;;;;;8.32;3.30;;;;;;;;;;4993937;28;20085;-72
2022/03/28 12:59:53;;;;;;;4.70;3.03;;;;;;;;;;4997223;28;20033;-69
2022/03/28 13:02:20;;;;;;;8.75;3.45;;;;;;;;;;4992633;28;20062;-69
2022/03/28 13:04:49;;;;;;;12.70;4.28;;;;;;;;;;4992240;28;20407;-69
2022/03/28 13:07:19;;;;;;;7.30;4.95;;;;;;;;;;4992397;28;20041;-69
2022/03/28 13:09:58;;;;;;;6.40;4.22;;;;;;;;;;4994426;28;20037;-70
2022/03/28 13:12:38;;;;;;;5.93;3.60;;;23.50;24.50;;;;;;4994768;28;20147;-69
2022/03/28 13:15:05;;;;;;;6.75;3.58;;;23.30;25.40;;;;;;4993884;28;20034;-69
2022/03/28 13:17:31;;;;;;;;;;;23.20;25.20;;;;;;4995959;28;20026;-69
2022/03/28 13:20:03;;;;;;;11.55;5.20;;;22.80;25.20;;;;;;4992695;28;19913;-69
2022/03/28 13:22:35;;;;;;;7.00;5.32;;;;;;;;;;4992746;28;20026;-69
2022/03/28 13:25:19;;;;;;;5.13;3.33;;;;;;;;;;4992602;28;20076;-69
2022/03/28 13:28:01;;;;;;;14.90;4.22;;;;;;;;;;4993239;28;20112;-69
2022/03/28 13:30:28;;;;;;;8.40;3.60;;;;;;;;;;4993083;28;20018;-69
2022/03/28 13:32:55;;;;;;;6.40;3.33;;;;;;;;;;4994444;28;20068;-69
2022/03/28 13:35:22;;;;;;;7.18;3.30;;;;;;;;;;4995814;28;20026;-69
2022/03/28 13:37:48;;;;;;;;;;;;;;;;;;4994633;28;20034;-70
2022/03/28 13:40:14;;;;;;;7.63;3.08;;;;;;;;;;4992996;28;20298;-69
2022/03/28 13:42:40;;;;;;;7.45;2.90;;;;;;;;;;4994187;28;20023;-69
2022/03/28 13:45:06;;;;;;;9.60;3.97;;;;;;;;;;4994352;28;20101;-69
2022/03/28 13:47:32;;;;;;;7.53;4.15;;;;;;;;;;4991607;28;20499;-71
2022/03/28 13:49:58;;;;;;;9.40;3.45;;;;;;;;;;4975464;28;20062;-68
2022/03/28 13:52:24;;;;;;;9.23;3.97;;;;;;;;;;4992735;28;20488;-69
2022/03/28 13:54:51;;;;;;;6.85;3.78;;;;;;;;;;4993520;28;20034;-69
2022/03/28 13:57:16;;;;;;;6.97;4.47;;;22.50;44.00;;;;;;4993946;28;20022;-70
2022/03/28 13:59:43;;;;;;;7.43;3.33;;;;;;;;;;4996207;28;20125;-70
2022/03/28 14:02:09;;;;;;;7.10;3.28;;;;;;;;;;4992657;28;20084;-69
2022/03/28 14:04:36;;;;;;;8.75;3.90;;;;;;;;;;4991583;28;20545;-70
2022/03/28 14:07:02;;;;;;;6.95;3.75;;;;;;;;;;4992273;28;20041;-70
2022/03/28 14:09:28;;;;;;;7.70;3.38;;;;;;;;;;4993954;28;20018;-70
2022/03/28 14:11:54;;;;;;;7.45;3.40;;;;;;;;;;4995186;28;20037;-70
2022/03/28 14:14:23;;;;;;;5.72;4.25;;;;;;;;;;4993130;28;20073;-70
2022/03/28 14:16:49;;;;;;;7.30;3.30;;;;;;;;;;4992554;28;20030;-70
2022/03/28 14:19:16;;;;;;;6.80;3.72;;;;;;;;;;4993873;28;20546;-70
2022/03/28 14:21:42;;;;;;;8.10;3.28;;;;;;;;;;4992030;28;20698;-70
2022/03/28 14:24:09;;;;;;;7.10;4.20;;;;;;;;;;4992480;28;20431;-71
2022/03/28 14:26:35;;;;;;;7.43;3.85;;;;;;;;;;4992798;28;20056;-73
2022/03/28 14:29:01;;;;;;;5.60;3.13;;;;;;;;;;4989907;28;20133;-71